Terminal Aerodrome Forecast
Issued by NWS

Home | Current Version | Previous Version | Text Only | Print | Product List | Glossary On
Versions: 1 2 3 4 5 6 7 8 9 10 11 12 13 14 15 16 17 18 19 20 21 22 23 24 25 26 27 28 29 30 31 32 33 34 35 36 37 38
254
FTUS42 KRAH 080537
TAFRWI
TAF
KRWI 080537Z 0806/0906 35012G22KT P6SM SCT100 BKN120 OVC180
     FM080800 32006KT P6SM SCT250
     FM081800 21009KT P6SM SCT060 BKN100=

USA.gov is the U.S. government's official web portal to all federal, state and local government web resources and services.